createdAt,value
2019-06-15T00:00:52.467Z,940.30
2019-06-15T00:01:52.487Z,940.35
2019-06-15T00:02:52.438Z,940.40
2019-06-15T00:03:52.472Z,940.37
2019-06-15T00:04:52.427Z,940.39
2019-06-15T00:05:52.403Z,940.40
2019-06-15T00:06:52.426Z,940.39
2019-06-15T00:07:52.410Z,940.40
2019-06-15T00:08:52.379Z,940.40
2019-06-15T00:09:52.394Z,940.41
2019-06-15T00:10:52.389Z,940.40
2019-06-15T00:11:52.388Z,940.44
2019-06-15T00:12:52.358Z,940.40
2019-06-15T00:13:52.373Z,940.42
2019-06-15T00:14:52.353Z,940.46
2019-06-15T00:15:52.349Z,940.44
2019-06-15T00:16:52.336Z,940.47
2019-06-15T00:17:52.322Z,940.46
2019-06-15T00:18:52.321Z,940.46
2019-06-15T00:19:52.306Z,940.43
2019-06-15T00:20:52.310Z,940.44
2019-06-15T00:21:52.309Z,940.45
2019-06-15T00:22:52.299Z,940.43
2019-06-15T00:23:52.300Z,940.48
2019-06-15T00:24:52.290Z,940.43
2019-06-15T00:25:52.274Z,940.46
2019-06-15T00:26:52.292Z,940.48
2019-06-15T00:27:52.272Z,940.45
2019-06-15T00:28:52.237Z,940.45
2019-06-15T00:29:52.251Z,940.42
2019-06-15T00:30:52.238Z,940.43
2019-06-15T00:31:52.219Z,940.45
2019-06-15T00:32:52.214Z,940.46
2019-06-15T00:33:52.200Z,940.42
2019-06-15T00:34:52.214Z,940.45
2019-06-15T00:35:52.206Z,940.42
2019-06-15T00:36:52.181Z,940.45
2019-06-15T00:37:52.184Z,940.46
2019-06-15T00:38:52.159Z,940.44
2019-06-15T00:39:52.155Z,940.44
2019-06-15T00:40:52.167Z,940.42
2019-06-15T00:41:52.147Z,940.40
2019-06-15T00:42:52.137Z,940.41
2019-06-15T00:43:52.123Z,940.42
2019-06-15T00:44:52.134Z,940.40
2019-06-15T00:45:52.147Z,940.43
2019-06-15T00:46:52.106Z,940.40
2019-06-15T00:47:52.114Z,940.40
2019-06-15T00:48:52.099Z,940.39
2019-06-15T00:49:52.094Z,940.41
2019-06-15T00:50:52.084Z,940.40
2019-06-15T00:51:52.067Z,940.38
2019-06-15T00:52:52.076Z,940.42
2019-06-15T00:53:52.110Z,940.41
2019-06-15T00:54:52.049Z,940.44
2019-06-15T00:55:52.044Z,940.44
2019-06-15T00:56:52.035Z,940.45
2019-06-15T00:57:52.024Z,940.48
2019-06-15T00:58:52.027Z,940.44
2019-06-15T00:59:52.013Z,940.43
2019-06-15T01:00:52.014Z,940.44
2019-06-15T01:01:52.006Z,940.44
2019-06-15T01:02:51.984Z,940.41
2019-06-15T01:03:51.977Z,940.42
2019-06-15T01:04:51.971Z,940.40
2019-06-15T01:05:52.015Z,940.40
2019-06-15T01:06:51.943Z,940.44
2019-06-15T01:07:51.994Z,940.37
2019-06-15T01:08:51.946Z,940.34
2019-06-15T01:09:51.920Z,940.36
2019-06-15T01:10:51.909Z,940.32
2019-06-15T01:11:51.900Z,940.33
2019-06-15T01:12:51.905Z,940.31
2019-06-15T01:13:51.999Z,940.32
2019-06-15T01:14:51.882Z,940.33
2019-06-15T01:15:51.890Z,940.30
2019-06-15T01:16:51.914Z,940.36
2019-06-15T01:17:51.868Z,940.34
2019-06-15T01:18:52.001Z,940.34
2019-06-15T01:19:51.835Z,940.34
2019-06-15T01:20:51.840Z,940.33
2019-06-15T01:21:51.834Z,940.33
2019-06-15T01:22:51.811Z,940.35
2019-06-15T01:23:51.904Z,940.36
2019-06-15T01:25:04.899Z,940.34
2019-06-15T01:25:51.826Z,940.35
2019-06-15T01:26:51.801Z,940.34
2019-06-15T01:27:51.797Z,940.34
2019-06-15T01:28:51.797Z,940.33
2019-06-15T01:29:51.778Z,940.32
2019-06-15T01:30:51.796Z,940.34
2019-06-15T01:31:51.770Z,940.33
2019-06-15T01:32:51.787Z,940.31
2019-06-15T01:33:51.887Z,940.34
2019-06-15T01:34:51.729Z,940.33
2019-06-15T01:35:51.735Z,940.30
2019-06-15T01:36:51.755Z,940.31
2019-06-15T01:37:51.719Z,940.34
2019-06-15T01:38:51.811Z,940.37
2019-06-15T01:39:51.675Z,940.34
2019-06-15T01:40:51.689Z,940.34
2019-06-15T01:41:51.681Z,940.34
2019-06-15T01:42:51.672Z,940.34
2019-06-15T01:43:51.661Z,940.37
2019-06-15T01:44:51.688Z,940.33
2019-06-15T01:45:51.658Z,940.35
2019-06-15T01:46:51.639Z,940.36
2019-06-15T01:47:51.641Z,940.36
2019-06-15T01:48:51.612Z,940.36
2019-06-15T01:49:51.623Z,940.35
2019-06-15T01:50:51.613Z,940.37
2019-06-15T01:51:51.602Z,940.35
2019-06-15T01:52:51.584Z,940.36
2019-06-15T01:53:51.583Z,940.38
2019-06-15T01:54:51.576Z,940.39
2019-06-15T01:55:51.568Z,940.40
2019-06-15T01:56:51.559Z,940.37
2019-06-15T01:57:51.556Z,940.40
2019-06-15T01:58:51.538Z,940.35
2019-06-15T01:59:51.526Z,940.38
2019-06-15T02:00:51.514Z,940.35
2019-06-15T02:01:51.509Z,940.33
2019-06-15T02:02:51.517Z,940.32
2019-06-15T02:03:51.481Z,940.32
2019-06-15T02:04:51.517Z,940.33
2019-06-15T02:05:51.488Z,940.36
2019-06-15T02:06:51.479Z,940.34
2019-06-15T02:07:51.468Z,940.37
2019-06-15T02:08:51.452Z,940.37
2019-06-15T02:09:51.447Z,940.33
2019-06-15T02:10:51.470Z,940.34
2019-06-15T02:11:51.439Z,940.35
2019-06-15T02:12:51.416Z,940.35
2019-06-15T02:13:51.393Z,940.32
2019-06-15T02:14:51.407Z,940.33
2019-06-15T02:15:51.396Z,940.33
2019-06-15T02:16:51.405Z,940.34
2019-06-15T02:17:51.361Z,940.32
2019-06-15T02:18:51.394Z,940.35
2019-06-15T02:19:51.365Z,940.31
2019-06-15T02:20:51.342Z,940.31
2019-06-15T02:21:51.354Z,940.29
2019-06-15T02:22:51.321Z,940.31
2019-06-15T02:23:51.339Z,940.32
2019-06-15T02:24:51.331Z,940.32
2019-06-15T02:25:51.297Z,940.30
2019-06-15T02:26:51.317Z,940.28
2019-06-15T02:27:51.301Z,940.26
2019-06-15T02:28:51.306Z,940.28
2019-06-15T02:29:51.276Z,940.31
2019-06-15T02:30:51.273Z,940.28
2019-06-15T02:31:51.271Z,940.31
2019-06-15T02:32:51.249Z,940.31
2019-06-15T02:33:51.263Z,940.33
2019-06-15T02:34:51.247Z,940.28
2019-06-15T02:35:51.240Z,940.28
2019-06-15T02:36:51.236Z,940.29
2019-06-15T02:37:51.238Z,940.29
2019-06-15T02:38:51.223Z,940.30
2019-06-15T02:39:51.216Z,940.30
2019-06-15T02:40:51.205Z,940.31
2019-06-15T02:41:51.196Z,940.26
2019-06-15T02:42:51.181Z,940.30
2019-06-15T02:43:51.166Z,940.30
2019-06-15T02:44:51.164Z,940.29
2019-06-15T02:45:51.158Z,940.29
2019-06-15T02:46:51.153Z,940.31
2019-06-15T02:47:51.140Z,940.29
2019-06-15T02:48:51.170Z,940.28
2019-06-15T02:49:51.124Z,940.25
2019-06-15T02:50:51.113Z,940.29
2019-06-15T02:51:51.099Z,940.28
2019-06-15T02:52:51.121Z,940.22
2019-06-15T02:53:51.110Z,940.24
2019-06-15T02:54:51.095Z,940.22
2019-06-15T02:55:51.203Z,940.21
2019-06-15T02:56:51.078Z,940.20
2019-06-15T02:57:51.102Z,940.20
2019-06-15T02:58:51.051Z,940.17
2019-06-15T02:59:51.049Z,940.17
2019-06-15T03:00:51.029Z,940.20
2019-06-15T03:01:51.040Z,940.21
2019-06-15T03:02:51.023Z,940.19
2019-06-15T03:03:51.002Z,940.17
2019-06-15T03:04:51.024Z,940.19
2019-06-15T03:05:51.000Z,940.19
2019-06-15T03:06:50.994Z,940.20
2019-06-15T03:07:50.963Z,940.20
2019-06-15T03:08:50.976Z,940.22
2019-06-15T03:09:50.972Z,940.16
2019-06-15T03:10:50.961Z,940.20
2019-06-15T03:11:50.938Z,940.21
2019-06-15T03:12:50.920Z,940.24
2019-06-15T03:13:50.914Z,940.20
2019-06-15T03:14:50.912Z,940.22
2019-06-15T03:15:50.918Z,940.21
2019-06-15T03:16:50.911Z,940.22
2019-06-15T03:17:50.905Z,940.23
2019-06-15T03:18:50.890Z,940.21
2019-06-15T03:19:50.895Z,940.20
2019-06-15T03:20:50.864Z,940.19
2019-06-15T03:21:50.867Z,940.19
2019-06-15T03:22:50.852Z,940.24
2019-06-15T03:23:50.839Z,940.20
2019-06-15T03:24:50.829Z,940.19
2019-06-15T03:26:02.182Z,940.16
2019-06-15T03:26:50.817Z,940.15
2019-06-15T03:27:50.804Z,940.15
2019-06-15T03:28:50.846Z,940.19
2019-06-15T03:29:50.831Z,940.14
2019-06-15T03:30:50.801Z,940.16
2019-06-15T03:31:50.782Z,940.16
2019-06-15T03:32:50.814Z,940.16
2019-06-15T03:33:50.771Z,940.14
2019-06-15T03:34:50.755Z,940.11
2019-06-15T03:35:50.765Z,940.11
2019-06-15T03:36:50.777Z,940.08
2019-06-15T03:37:50.725Z,940.08
2019-06-15T03:38:50.723Z,940.06
2019-06-15T03:39:50.719Z,940.03
2019-06-15T03:40:50.731Z,940.03
2019-06-15T03:41:50.693Z,940.04
2019-06-15T03:42:50.689Z,940.04
2019-06-15T03:43:50.690Z,940.04
2019-06-15T03:44:50.752Z,940.06
2019-06-15T03:45:50.657Z,940.06
2019-06-15T03:46:50.653Z,940.00
2019-06-15T03:47:50.663Z,940.06
2019-06-15T03:48:50.643Z,940.05
2019-06-15T03:49:50.638Z,940.03
2019-06-15T03:50:50.680Z,940.01
2019-06-15T03:51:50.607Z,939.99
2019-06-15T03:52:50.634Z,939.99
2019-06-15T03:53:50.607Z,939.98
2019-06-15T03:54:50.611Z,939.97
2019-06-15T03:55:50.587Z,939.96
2019-06-15T03:56:50.577Z,939.92
2019-06-15T03:57:50.560Z,939.96
2019-06-15T03:58:50.551Z,939.92
2019-06-15T03:59:50.588Z,939.90
2019-06-15T04:00:50.530Z,939.92
2019-06-15T04:01:50.522Z,939.86
2019-06-15T04:02:50.518Z,939.85
2019-06-15T04:03:50.510Z,939.84
2019-06-15T04:04:52.312Z,939.81
2019-06-15T04:05:50.494Z,939.81
2019-06-15T04:06:50.479Z,939.78
2019-06-15T04:07:50.521Z,939.79
2019-06-15T04:08:50.463Z,939.79
2019-06-15T04:09:50.469Z,939.80
2019-06-15T04:10:50.465Z,939.86
2019-06-15T04:11:50.448Z,939.78
2019-06-15T04:12:50.591Z,939.80
2019-06-15T04:13:50.434Z,939.83
2019-06-15T04:14:50.429Z,939.78
2019-06-15T04:15:50.410Z,939.79
2019-06-15T04:16:50.394Z,939.79
2019-06-15T04:17:50.405Z,939.82
2019-06-15T04:18:50.396Z,939.81
2019-06-15T04:19:50.379Z,939.80
2019-06-15T04:20:50.403Z,939.83
2019-06-15T04:21:50.359Z,939.84
2019-06-15T04:22:50.349Z,939.85
2019-06-15T04:23:50.347Z,939.84
2019-06-15T04:24:50.339Z,939.78
2019-06-15T04:25:50.318Z,939.78
2019-06-15T04:26:50.317Z,939.77
2019-06-15T04:27:50.313Z,939.78
2019-06-15T04:28:50.316Z,939.76
2019-06-15T04:29:50.292Z,939.74
2019-06-15T04:30:50.293Z,939.72
2019-06-15T04:31:50.276Z,939.72
2019-06-15T04:32:50.277Z,939.73
2019-06-15T04:34:00.631Z,939.69
2019-06-15T04:34:50.232Z,939.70
2019-06-15T04:35:50.273Z,939.71
2019-06-15T04:36:50.226Z,939.64
2019-06-15T04:37:50.225Z,939.68
2019-06-15T04:38:50.217Z,939.64
2019-06-15T04:39:50.208Z,939.68
2019-06-15T04:40:50.208Z,939.67
2019-06-15T04:41:50.196Z,939.64
2019-06-15T04:42:50.184Z,939.65
2019-06-15T04:43:50.179Z,939.59
2019-06-15T04:44:50.174Z,939.62
2019-06-15T04:45:50.183Z,939.60
2019-06-15T04:46:50.183Z,939.58
2019-06-15T04:47:50.128Z,939.59
2019-06-15T04:48:50.158Z,939.56
2019-06-15T04:49:50.135Z,939.57
2019-06-15T04:50:50.117Z,939.59
2019-06-15T04:51:50.106Z,939.59
2019-06-15T04:52:50.103Z,939.62
2019-06-15T04:53:50.095Z,939.57
2019-06-15T04:54:50.058Z,939.57
2019-06-15T04:55:50.068Z,939.57
2019-06-15T04:56:51.156Z,939.56
2019-06-15T04:57:50.056Z,939.65
2019-06-15T04:58:50.044Z,939.59
2019-06-15T04:59:50.036Z,939.59
2019-06-15T05:00:50.031Z,939.57
2019-06-15T05:01:49.998Z,939.58
2019-06-15T05:02:50.032Z,939.55
2019-06-15T05:03:50.037Z,939.55
2019-06-15T05:04:49.972Z,939.52
2019-06-15T05:05:50.006Z,939.54
2019-06-15T05:06:49.983Z,939.53
2019-06-15T05:07:49.968Z,939.48
2019-06-15T05:08:49.949Z,939.50
2019-06-15T05:09:49.939Z,939.51
2019-06-15T05:10:49.934Z,939.47
2019-06-15T05:11:49.919Z,939.48
2019-06-15T05:12:49.906Z,939.48
2019-06-15T05:13:49.983Z,939.50
2019-06-15T05:14:49.877Z,939.52
2019-06-15T05:15:49.876Z,939.54
2019-06-15T05:16:49.891Z,939.50
2019-06-15T05:17:49.864Z,939.50
2019-06-15T05:18:49.873Z,939.50
2019-06-15T05:19:49.848Z,939.49
2019-06-15T05:20:49.852Z,939.49
2019-06-15T05:21:49.816Z,939.53
2019-06-15T05:22:49.843Z,939.52
2019-06-15T05:23:49.807Z,939.53
2019-06-15T05:24:49.805Z,939.53
2019-06-15T05:25:49.788Z,939.53
2019-06-15T05:26:49.783Z,939.55
2019-06-15T05:27:49.778Z,939.52
2019-06-15T05:28:49.790Z,939.52
2019-06-15T05:29:49.823Z,939.47
2019-06-15T05:30:49.800Z,939.52
2019-06-15T05:31:49.737Z,939.51
2019-06-15T05:32:49.746Z,939.48
2019-06-15T05:33:49.743Z,939.51
2019-06-15T05:34:49.757Z,939.49
2019-06-15T05:35:49.725Z,939.49
2019-06-15T05:36:49.717Z,939.48
2019-06-15T05:37:49.730Z,939.45
2019-06-15T05:38:49.685Z,939.42
2019-06-15T05:39:49.719Z,939.46
2019-06-15T05:40:49.662Z,939.46
2019-06-15T05:41:49.750Z,939.49
2019-06-15T05:42:49.687Z,939.50
2019-06-15T05:43:49.664Z,939.52
2019-06-15T05:44:49.626Z,939.47
2019-06-15T05:45:49.630Z,939.49
2019-06-15T05:46:49.629Z,939.46
2019-06-15T05:47:49.598Z,939.45
2019-06-15T05:48:49.600Z,939.46
2019-06-15T05:49:49.596Z,939.45
2019-06-15T05:50:49.636Z,939.45
2019-06-15T05:51:49.563Z,939.48
2019-06-15T05:52:49.560Z,939.48
2019-06-15T05:53:49.566Z,939.47
2019-06-15T05:54:49.538Z,939.42
2019-06-15T05:55:49.532Z,939.40
2019-06-15T05:56:49.569Z,939.38
2019-06-15T05:57:49.523Z,939.39
2019-06-15T05:58:49.493Z,939.40
2019-06-15T05:59:49.505Z,939.39
2019-06-15T06:00:49.492Z,939.42
2019-06-15T06:01:49.501Z,939.41
2019-06-15T06:02:49.455Z,939.36
2019-06-15T06:03:49.464Z,939.36
2019-06-15T06:04:49.446Z,939.36
2019-06-15T06:05:49.457Z,939.30
2019-06-15T06:06:49.456Z,939.35
2019-06-15T06:07:49.430Z,939.34
2019-06-15T06:08:49.426Z,939.34
2019-06-15T06:09:49.407Z,939.37
2019-06-15T06:10:49.399Z,939.36
2019-06-15T06:11:49.402Z,939.38
2019-06-15T06:12:49.388Z,939.35
2019-06-15T06:13:49.367Z,939.33
2019-06-15T06:14:49.364Z,939.31
2019-06-15T06:15:49.362Z,939.29
2019-06-15T06:16:49.346Z,939.28
2019-06-15T06:17:49.348Z,939.35
2019-06-15T06:18:49.321Z,939.30
2019-06-15T06:19:49.306Z,939.29
2019-06-15T06:20:49.311Z,939.28
2019-06-15T06:21:49.334Z,939.31
2019-06-15T06:22:49.280Z,939.30
2019-06-15T06:23:49.287Z,939.28
2019-06-15T06:24:49.280Z,939.24
2019-06-15T06:25:49.310Z,939.26
2019-06-15T06:26:49.258Z,939.28
2019-06-15T06:27:49.243Z,939.26
2019-06-15T06:28:57.132Z,939.25
2019-06-15T06:29:49.224Z,939.27
2019-06-15T06:30:49.219Z,939.25
2019-06-15T06:31:49.343Z,939.25
2019-06-15T06:32:49.198Z,939.24
2019-06-15T06:33:49.199Z,939.23
2019-06-15T06:34:49.194Z,939.27
2019-06-15T06:35:49.177Z,939.27
2019-06-15T06:36:49.165Z,939.26
2019-06-15T06:37:49.155Z,939.25
2019-06-15T06:38:49.134Z,939.23
2019-06-15T06:39:49.132Z,939.20
2019-06-15T06:40:49.132Z,939.20
2019-06-15T06:41:49.112Z,939.18
2019-06-15T06:42:49.102Z,939.18
2019-06-15T06:43:49.095Z,939.18
2019-06-15T06:44:49.090Z,939.17
2019-06-15T06:45:49.069Z,939.17
2019-06-15T06:46:49.072Z,939.19
2019-06-15T06:47:49.057Z,939.20
2019-06-15T06:48:49.069Z,939.20
2019-06-15T06:49:49.026Z,939.21
2019-06-15T06:50:49.033Z,939.21
2019-06-15T06:51:49.025Z,939.22
2019-06-15T06:52:49.015Z,939.20
2019-06-15T06:53:49.007Z,939.19
2019-06-15T06:54:48.993Z,939.14
2019-06-15T06:55:49.026Z,939.14
2019-06-15T06:56:49.005Z,939.11
2019-06-15T06:57:53.545Z,939.16
2019-06-15T06:58:48.954Z,939.16
2019-06-15T06:59:48.921Z,939.15
2019-06-15T07:00:48.928Z,939.18
2019-06-15T07:01:48.937Z,939.20
2019-06-15T07:02:48.918Z,939.19
2019-06-15T07:03:48.894Z,939.23
2019-06-15T07:04:48.886Z,939.17
2019-06-15T07:05:48.861Z,939.17
2019-06-15T07:06:48.860Z,939.13
2019-06-15T07:07:48.858Z,939.15
2019-06-15T07:08:48.836Z,939.11
2019-06-15T07:09:48.881Z,939.11
2019-06-15T07:10:48.826Z,939.12
2019-06-15T07:11:48.804Z,939.11
2019-06-15T07:12:48.812Z,939.10
2019-06-15T07:13:48.785Z,939.12
2019-06-15T07:14:48.798Z,939.08
2019-06-15T07:15:48.771Z,939.13
2019-06-15T07:16:48.776Z,939.08
2019-06-15T07:17:48.749Z,939.11
2019-06-15T07:18:48.751Z,939.07
2019-06-15T07:19:48.743Z,939.10
2019-06-15T07:20:48.746Z,939.05
2019-06-15T07:21:48.724Z,939.10
2019-06-15T07:22:48.711Z,939.04
2019-06-15T07:23:48.687Z,939.07
2019-06-15T07:24:48.679Z,939.04
2019-06-15T07:25:48.671Z,939.07
2019-06-15T07:26:48.673Z,939.10
2019-06-15T07:27:48.652Z,939.09
2019-06-15T07:28:48.676Z,939.08
2019-06-15T07:29:48.651Z,939.09
2019-06-15T07:30:48.619Z,939.13
2019-06-15T07:31:48.595Z,939.10
2019-06-15T07:32:48.605Z,939.11
2019-06-15T07:33:48.600Z,939.13
2019-06-15T07:34:48.592Z,939.15
2019-06-15T07:35:48.575Z,939.14
2019-06-15T07:36:48.556Z,939.16
2019-06-15T07:37:48.561Z,939.18
2019-06-15T07:38:48.534Z,939.17
2019-06-15T07:39:48.532Z,939.20
2019-06-15T07:40:48.530Z,939.20
2019-06-15T07:41:48.518Z,939.19
2019-06-15T07:42:48.498Z,939.24
2019-06-15T07:43:48.500Z,939.20
2019-06-15T07:44:48.484Z,939.25
2019-06-15T07:45:48.483Z,939.23
2019-06-15T07:46:48.465Z,939.26
2019-06-15T07:47:48.447Z,939.24
2019-06-15T07:48:48.458Z,939.24
2019-06-15T07:49:48.416Z,939.20
2019-06-15T07:50:48.432Z,939.22
2019-06-15T07:51:48.421Z,939.23
2019-06-15T07:52:48.452Z,939.24
2019-06-15T07:53:48.409Z,939.25
2019-06-15T07:54:48.393Z,939.25
2019-06-15T07:55:48.353Z,939.29
2019-06-15T07:56:48.369Z,939.32
2019-06-15T07:57:48.387Z,939.30
2019-06-15T07:58:48.351Z,939.33
2019-06-15T07:59:48.330Z,939.31
2019-06-15T08:00:48.327Z,939.34
2019-06-15T08:01:48.306Z,939.32
2019-06-15T08:02:48.293Z,939.32
2019-06-15T08:03:48.277Z,939.33
2019-06-15T08:04:48.275Z,939.34
2019-06-15T08:05:48.275Z,939.37
2019-06-15T08:06:48.237Z,939.35
2019-06-15T08:07:48.250Z,939.31
2019-06-15T08:08:48.273Z,939.34
2019-06-15T08:09:48.216Z,939.35
2019-06-15T08:10:48.328Z,939.35
2019-06-15T08:11:48.232Z,939.34
2019-06-15T08:12:48.208Z,939.34
2019-06-15T08:13:48.195Z,939.36
2019-06-15T08:14:48.153Z,939.38
2019-06-15T08:15:48.163Z,939.34
2019-06-15T08:16:48.155Z,939.42
2019-06-15T08:17:48.142Z,939.36
2019-06-15T08:18:48.119Z,939.40
2019-06-15T08:19:48.132Z,939.39
2019-06-15T08:20:48.103Z,939.43
2019-06-15T08:21:48.103Z,939.44
2019-06-15T08:22:48.088Z,939.48
2019-06-15T08:23:48.076Z,939.46
2019-06-15T08:24:48.051Z,939.48
2019-06-15T08:25:48.056Z,939.50
2019-06-15T08:26:48.039Z,939.47
2019-06-15T08:27:48.038Z,939.46
2019-06-15T08:28:48.030Z,939.44
2019-06-15T08:29:48.003Z,939.49
2019-06-15T08:30:48.068Z,939.49
2019-06-15T08:31:48.003Z,939.49
2019-06-15T08:32:47.981Z,939.50
2019-06-15T08:33:47.975Z,939.52
2019-06-15T08:34:47.966Z,939.52
2019-06-15T08:35:47.933Z,939.51
2019-06-15T08:36:47.947Z,939.52
2019-06-15T08:37:47.958Z,939.53
2019-06-15T08:38:47.950Z,939.55
2019-06-15T08:39:47.906Z,939.56
2019-06-15T08:40:47.888Z,939.55
2019-06-15T08:41:47.863Z,939.56
2019-06-15T08:42:47.866Z,939.56
2019-06-15T08:43:47.881Z,939.55
2019-06-15T08:44:47.846Z,939.57
2019-06-15T08:45:47.834Z,939.55
2019-06-15T08:46:47.838Z,939.56
2019-06-15T08:47:47.839Z,939.58
2019-06-15T08:48:47.816Z,939.60
2019-06-15T08:49:47.798Z,939.57
2019-06-15T08:50:47.802Z,939.59
2019-06-15T08:51:47.773Z,939.60
2019-06-15T08:52:47.751Z,939.62
2019-06-15T08:53:47.749Z,939.62
2019-06-15T08:54:47.752Z,939.65
2019-06-15T08:55:47.744Z,939.69
2019-06-15T08:56:47.733Z,939.62
2019-06-15T08:57:47.720Z,939.65
2019-06-15T08:58:55.403Z,939.63
2019-06-15T08:59:47.683Z,939.63
2019-06-15T09:00:47.681Z,939.64
2019-06-15T09:01:47.663Z,939.63
2019-06-15T09:02:47.655Z,939.65
2019-06-15T09:03:49.428Z,939.65
2019-06-15T09:04:47.645Z,939.70
2019-06-15T09:05:47.641Z,939.68
2019-06-15T09:06:47.632Z,939.65
2019-06-15T09:07:47.647Z,939.66
2019-06-15T09:08:47.603Z,939.67
2019-06-15T09:09:47.590Z,939.65
2019-06-15T09:10:47.576Z,939.63
2019-06-15T09:11:47.574Z,939.69
2019-06-15T09:12:47.569Z,939.70
2019-06-15T09:13:47.546Z,939.71
2019-06-15T09:14:47.540Z,939.73
2019-06-15T09:15:47.518Z,939.74
2019-06-15T09:16:47.496Z,939.73
2019-06-15T09:17:47.499Z,939.76
2019-06-15T09:18:47.479Z,939.79
2019-06-15T09:19:47.491Z,939.76
2019-06-15T09:20:47.458Z,939.80
2019-06-15T09:21:47.454Z,939.76
2019-06-15T09:22:47.458Z,939.79
2019-06-15T09:23:47.448Z,939.81
2019-06-15T09:24:47.433Z,939.81
2019-06-15T09:25:47.409Z,939.79
2019-06-15T09:26:47.402Z,939.81
2019-06-15T09:27:47.399Z,939.79
2019-06-15T09:28:47.382Z,939.79
2019-06-15T09:29:47.375Z,939.86
2019-06-15T09:30:47.369Z,939.87
2019-06-15T09:31:47.355Z,939.86
2019-06-15T09:32:47.349Z,939.91
2019-06-15T09:33:47.332Z,939.93
2019-06-15T09:34:47.300Z,939.88
2019-06-15T09:35:47.317Z,939.87
2019-06-15T09:36:47.302Z,939.85
2019-06-15T09:37:47.288Z,939.84
2019-06-15T09:38:47.278Z,939.82
2019-06-15T09:39:47.252Z,939.83
2019-06-15T09:40:47.291Z,939.81
2019-06-15T09:41:47.231Z,939.85
2019-06-15T09:42:47.241Z,939.83
2019-06-15T09:43:47.205Z,939.81
2019-06-15T09:44:47.236Z,939.83
2019-06-15T09:45:47.194Z,939.81
2019-06-15T09:46:47.189Z,939.85
2019-06-15T09:47:47.185Z,939.85
2019-06-15T09:48:47.172Z,939.85
2019-06-15T09:49:47.166Z,939.85
2019-06-15T09:50:47.148Z,939.85
2019-06-15T09:51:47.116Z,939.85
2019-06-15T09:52:47.133Z,939.86
2019-06-15T09:53:47.123Z,939.85
2019-06-15T09:54:47.109Z,939.90
2019-06-15T09:55:47.101Z,939.90
2019-06-15T09:56:47.077Z,939.92
2019-06-15T09:57:47.051Z,939.97
2019-06-15T09:58:47.055Z,940.01
2019-06-15T09:59:47.037Z,940.01
2019-06-15T10:00:47.045Z,940.03
2019-06-15T10:01:47.009Z,940.05
2019-06-15T10:02:47.009Z,940.07
2019-06-15T10:03:46.999Z,940.07
2019-06-15T10:04:47.002Z,940.09
2019-06-15T10:05:46.977Z,940.11
2019-06-15T10:06:46.981Z,940.13
2019-06-15T10:07:46.963Z,940.17
2019-06-15T10:08:46.935Z,940.17
2019-06-15T10:09:46.951Z,940.19
2019-06-15T10:10:46.932Z,940.21
2019-06-15T10:11:46.911Z,940.22
2019-06-15T10:12:46.907Z,940.22
2019-06-15T10:13:46.890Z,940.25
2019-06-15T10:14:46.892Z,940.24
2019-06-15T10:15:46.878Z,940.28
2019-06-15T10:16:46.865Z,940.31
2019-06-15T10:17:46.855Z,940.31
2019-06-15T10:18:46.844Z,940.34
2019-06-15T10:19:46.822Z,940.30
2019-06-15T10:20:46.825Z,940.38
2019-06-15T10:21:46.805Z,940.39
2019-06-15T10:22:46.792Z,940.39
2019-06-15T10:23:46.768Z,940.44
2019-06-15T10:24:46.764Z,940.41
2019-06-15T10:25:46.760Z,940.41
2019-06-15T10:26:46.791Z,940.43
2019-06-15T10:27:46.749Z,940.45
2019-06-15T10:28:46.731Z,940.47
2019-06-15T10:29:46.753Z,940.46
2019-06-15T10:30:46.713Z,940.49
2019-06-15T10:31:46.710Z,940.47
2019-06-15T10:32:46.685Z,940.50
2019-06-15T10:33:46.688Z,940.47
2019-06-15T10:34:46.662Z,940.47
2019-06-15T10:35:46.669Z,940.48
2019-06-15T10:36:46.662Z,940.48
2019-06-15T10:37:46.616Z,940.51
2019-06-15T10:38:46.618Z,940.54
2019-06-15T10:39:46.607Z,940.57
2019-06-15T10:40:46.609Z,940.52
2019-06-15T10:41:46.628Z,940.56
2019-06-15T10:42:46.582Z,940.60
2019-06-15T10:43:46.562Z,940.58
2019-06-15T10:44:46.615Z,940.56
2019-06-15T10:45:46.545Z,940.61
2019-06-15T10:46:46.542Z,940.62
2019-06-15T10:47:46.543Z,940.58
2019-06-15T10:48:46.528Z,940.63
2019-06-15T10:49:46.507Z,940.65
2019-06-15T10:50:46.493Z,940.65
2019-06-15T10:51:46.510Z,940.67
2019-06-15T10:52:46.459Z,940.71
2019-06-15T10:53:46.469Z,940.70
2019-06-15T10:54:46.444Z,940.70
2019-06-15T10:55:46.452Z,940.72
2019-06-15T10:56:46.428Z,940.73
2019-06-15T10:57:46.420Z,940.73
2019-06-15T10:58:46.407Z,940.73
2019-06-15T10:59:56.842Z,940.77
2019-06-15T11:00:48.799Z,940.78
2019-06-15T11:01:46.370Z,940.77
2019-06-15T11:02:46.366Z,940.80
2019-06-15T11:03:46.364Z,940.85
2019-06-15T11:04:46.355Z,940.88
2019-06-15T11:05:46.339Z,940.87
2019-06-15T11:06:46.339Z,940.89
2019-06-15T11:07:46.330Z,940.88
2019-06-15T11:08:46.314Z,940.90
2019-06-15T11:09:46.288Z,940.89
2019-06-15T11:10:46.295Z,940.91
2019-06-15T11:11:46.264Z,940.91
2019-06-15T11:12:46.994Z,940.94
2019-06-15T11:13:46.264Z,940.96
2019-06-15T11:14:46.260Z,940.94
2019-06-15T11:15:46.246Z,940.94
2019-06-15T11:16:46.234Z,941.01
2019-06-15T11:17:46.216Z,941.00
2019-06-15T11:18:46.200Z,941.02
2019-06-15T11:19:46.183Z,941.05
2019-06-15T11:20:46.182Z,941.07
2019-06-15T11:21:46.160Z,941.06
2019-06-15T11:22:46.214Z,941.07
2019-06-15T11:23:46.156Z,941.06
2019-06-15T11:24:46.156Z,941.08
2019-06-15T11:25:46.129Z,941.08
2019-06-15T11:26:46.123Z,941.13
2019-06-15T11:27:46.101Z,941.12
2019-06-15T11:28:46.103Z,941.11
2019-06-15T11:29:46.117Z,941.16
2019-06-15T11:30:46.082Z,941.12
2019-06-15T11:31:46.072Z,941.12
2019-06-15T11:32:46.070Z,941.13
2019-06-15T11:33:46.055Z,941.16
2019-06-15T11:34:46.052Z,941.21
2019-06-15T11:35:46.042Z,941.19
2019-06-15T11:36:46.010Z,941.23
2019-06-15T11:37:45.994Z,941.24
2019-06-15T11:38:46.008Z,941.24
2019-06-15T11:39:45.997Z,941.23
2019-06-15T11:40:45.987Z,941.25
2019-06-15T11:41:45.997Z,941.24
2019-06-15T11:42:45.963Z,941.29
2019-06-15T11:43:45.954Z,941.27
2019-06-15T11:44:45.952Z,941.28
2019-06-15T11:45:45.954Z,941.25
2019-06-15T11:46:45.983Z,941.25
2019-06-15T11:47:45.924Z,941.26
2019-06-15T11:48:45.909Z,941.27
2019-06-15T11:49:45.920Z,941.27
2019-06-15T11:50:45.882Z,941.22
2019-06-15T11:51:45.891Z,941.22
2019-06-15T11:52:45.880Z,941.25
2019-06-15T11:53:45.871Z,941.24
2019-06-15T11:54:45.858Z,941.20
2019-06-15T11:55:45.871Z,941.24
2019-06-15T11:56:45.854Z,941.26
2019-06-15T11:57:45.826Z,941.24
2019-06-15T11:58:45.879Z,941.27
2019-06-15T11:59:45.833Z,941.28
2019-06-15T12:00:45.809Z,941.31
2019-06-15T12:01:45.816Z,941.30
2019-06-15T12:02:45.808Z,941.32
2019-06-15T12:03:45.788Z,941.32
2019-06-15T12:04:57.736Z,941.33
2019-06-15T12:05:45.758Z,941.35
2019-06-15T12:06:45.767Z,941.37
2019-06-15T12:07:45.758Z,941.38
2019-06-15T12:08:45.744Z,941.39
2019-06-15T12:09:45.729Z,941.37
2019-06-15T12:10:45.746Z,941.40
2019-06-15T12:11:45.767Z,941.38
2019-06-15T12:12:45.721Z,941.40
2019-06-15T12:13:45.729Z,941.43
2019-06-15T12:14:45.708Z,941.41
2019-06-15T12:15:45.720Z,941.39
2019-06-15T12:16:45.685Z,941.37
2019-06-15T12:17:45.682Z,941.39
2019-06-15T12:18:45.676Z,941.40
2019-06-15T12:19:45.669Z,941.45
2019-06-15T12:20:45.648Z,941.41
2019-06-15T12:21:45.659Z,941.48
2019-06-15T12:22:45.648Z,941.46
2019-06-15T12:23:45.655Z,941.45
2019-06-15T12:24:45.642Z,941.45
2019-06-15T12:25:45.627Z,941.43
2019-06-15T12:26:45.618Z,941.49
2019-06-15T12:27:45.641Z,941.47
2019-06-15T12:28:45.605Z,941.45